createdAt,value
2022-12-11T00:00:23.836Z,96811.22
2022-12-11T00:02:50.591Z,96810.38
2022-12-11T00:05:17.566Z,96807.13
2022-12-11T00:07:44.444Z,96811.28
2022-12-11T00:10:11.111Z,96804.50
2022-12-11T00:12:37.682Z,96805.41
2022-12-11T00:15:04.593Z,96798.09
2022-12-11T00:17:31.260Z,96794.66
2022-12-11T00:19:58.012Z,96791.28
2022-12-11T00:22:24.591Z,96803.38
2022-12-11T00:24:51.819Z,96808.53
2022-12-11T00:27:18.612Z,96802.63
2022-12-11T00:29:45.263Z,96801.72
2022-12-11T00:32:11.860Z,96794.03
2022-12-11T00:34:41.002Z,96798.38
2022-12-11T00:37:07.896Z,96797.44
2022-12-11T00:39:36.524Z,96799.31
2022-12-11T00:42:03.172Z,96795.13
2022-12-11T00:44:30.267Z,96792.50
2022-12-11T00:46:57.041Z,96788.53
2022-12-11T00:49:23.792Z,96789.25
2022-12-11T00:51:50.438Z,96788.53
2022-12-11T00:54:17.073Z,96795.50
2022-12-11T00:56:43.828Z,96803.94
2022-12-11T00:59:10.415Z,96807.38
2022-12-11T01:01:37.329Z,96802.19
2022-12-11T01:04:04.168Z,96806.38
2022-12-11T01:06:30.801Z,96803.13
2022-12-11T01:09:16.548Z,96802.19
2022-12-11T01:11:43.847Z,96799.78
2022-12-11T01:14:11.524Z,96791.34
2022-12-11T01:16:38.468Z,96799.22
2022-12-11T01:19:05.295Z,96795.84
2022-12-11T01:21:32.205Z,96794.88
2022-12-11T01:23:58.941Z,96805.97
2022-12-11T01:26:25.759Z,96800.16
2022-12-11T01:28:52.730Z,96795.06
2022-12-11T01:31:22.458Z,96788.34
2022-12-11T01:33:49.112Z,96795.84
2022-12-11T01:36:19.517Z,96801.19
2022-12-11T01:38:48.680Z,96795.25
2022-12-11T01:41:17.203Z,96787.59
2022-12-11T01:44:16.510Z,96785.13
2022-12-11T01:46:43.760Z,96785.19
2022-12-11T01:49:15.511Z,96787.91
2022-12-11T01:51:50.364Z,96785.47
2022-12-11T01:54:19.337Z,96785.59
2022-12-11T01:56:48.495Z,96787.31
2022-12-11T01:59:19.207Z,96777.78
2022-12-11T02:01:51.269Z,96780.25
2022-12-11T02:04:19.060Z,96782.75
2022-12-11T02:06:48.997Z,96778.50
2022-12-11T02:09:20.400Z,96777.59
2022-12-11T02:12:02.085Z,96775.00
2022-12-11T02:15:07.851Z,96764.88
2022-12-11T02:17:44.588Z,96773.41
2022-12-11T02:20:31.740Z,96775.16
2022-12-11T02:23:25.919Z,96770.94
2022-12-11T02:26:07.748Z,96775.16
2022-12-11T02:28:40.337Z,96770.09
2022-12-11T02:31:22.336Z,96776.09
2022-12-11T02:33:59.714Z,96773.53
2022-12-11T02:36:31.743Z,96777.03
2022-12-11T02:39:00.596Z,96777.00
2022-12-11T02:41:29.700Z,96780.41
2022-12-11T02:43:57.989Z,96763.50
2022-12-11T02:46:25.994Z,96771.94
2022-12-11T02:48:54.451Z,96765.97
2022-12-11T02:51:28.764Z,96777.09
2022-12-11T02:53:59.193Z,96783.81
2022-12-11T02:56:33.193Z,96779.59
2022-12-11T02:59:08.984Z,96765.28
2022-12-11T03:01:35.760Z,96775.38
2022-12-11T03:04:02.949Z,96767.88
2022-12-11T03:06:42.238Z,96772.88
2022-12-11T03:09:09.116Z,96773.78
2022-12-11T03:11:35.862Z,96769.44
2022-12-11T03:14:06.030Z,96776.16
2022-12-11T03:16:41.877Z,96768.44
2022-12-11T03:19:41.675Z,96770.28
2022-12-11T03:22:37.316Z,96768.56
2022-12-11T03:25:16.448Z,96782.19
2022-12-11T03:28:09.831Z,96773.69
2022-12-11T03:30:37.401Z,96769.53
2022-12-11T03:33:11.290Z,96756.78
2022-12-11T03:35:51.449Z,96750.03
2022-12-11T03:38:25.305Z,96757.75
2022-12-11T03:40:55.652Z,96751.75
2022-12-11T03:43:23.295Z,96750.13
2022-12-11T03:45:52.924Z,96751.84
2022-12-11T03:48:21.496Z,96750.88
2022-12-11T03:50:50.818Z,96757.69
2022-12-11T03:53:19.180Z,96756.03
2022-12-11T03:55:47.658Z,96752.69
2022-12-11T03:58:14.501Z,96751.94
2022-12-11T04:00:41.192Z,96751.97
2022-12-11T04:03:14.539Z,96750.31
2022-12-11T04:05:44.191Z,96750.31
2022-12-11T04:08:11.126Z,96753.03
2022-12-11T04:10:38.003Z,96749.56
2022-12-11T04:13:04.838Z,96756.41
2022-12-11T04:15:31.867Z,96759.81
2022-12-11T04:18:17.142Z,96746.28
2022-12-11T04:21:02.581Z,96740.38
2022-12-11T04:23:47.971Z,96738.69
2022-12-11T04:26:17.761Z,96754.94
2022-12-11T04:28:45.953Z,96735.50
2022-12-11T04:31:14.376Z,96744.88
2022-12-11T04:33:41.475Z,96745.81
2022-12-11T04:36:08.878Z,96751.88
2022-12-11T04:38:36.210Z,96749.34
2022-12-11T04:41:06.637Z,96765.59
2022-12-11T04:43:33.754Z,96754.56
2022-12-11T04:46:02.421Z,96770.69
2022-12-11T04:48:29.078Z,96766.44
2022-12-11T04:50:55.755Z,96767.28
2022-12-11T04:53:22.412Z,96757.91
2022-12-11T04:55:49.309Z,96755.47
2022-12-11T04:58:18.139Z,96765.63
2022-12-11T05:00:44.744Z,96753.00
2022-12-11T05:03:11.728Z,96751.28
2022-12-11T05:05:39.170Z,96765.78
2022-12-11T05:08:05.978Z,96764.91
2022-12-11T05:10:32.680Z,96770.78
2022-12-11T05:12:59.840Z,96778.47
2022-12-11T05:15:26.596Z,96787.88
2022-12-11T05:17:54.083Z,96786.94
2022-12-11T05:20:20.939Z,96786.09
2022-12-11T05:22:47.616Z,96789.59
2022-12-11T05:25:14.500Z,96791.28
2022-12-11T05:27:41.195Z,96778.66
2022-12-11T05:30:10.402Z,96801.63
2022-12-11T05:32:36.990Z,96805.84
2022-12-11T05:35:03.918Z,96803.25
2022-12-11T05:37:30.501Z,96810.78
2022-12-11T05:39:57.244Z,96808.19
2022-12-11T05:42:28.648Z,96797.16
2022-12-11T05:44:55.811Z,96798.97
2022-12-11T05:47:22.763Z,96794.69
2022-12-11T05:49:49.397Z,96811.69
2022-12-11T05:52:16.746Z,96805.13
2022-12-11T05:54:43.601Z,96810.09
2022-12-11T05:57:10.423Z,96818.75
2022-12-11T05:59:37.424Z,96822.06
2022-12-11T06:02:04.214Z,96811.78
2022-12-11T06:04:30.912Z,96840.72
2022-12-11T06:06:58.199Z,96844.94
2022-12-11T06:09:25.358Z,96838.13
2022-12-11T06:11:51.971Z,96841.53
2022-12-11T06:14:18.729Z,96843.31
2022-12-11T06:16:45.604Z,96849.28
2022-12-11T06:19:15.073Z,96856.84
2022-12-11T06:21:42.180Z,96842.56
2022-12-11T06:24:11.452Z,96862.88
2022-12-11T06:26:52.476Z,96856.28
2022-12-11T06:29:19.070Z,96867.25
2022-12-11T06:31:45.785Z,96874.97
2022-12-11T06:34:13.993Z,96866.63
2022-12-11T06:36:40.946Z,96864.91
2022-12-11T06:39:07.638Z,96880.97
2022-12-11T06:41:34.294Z,96881.06
2022-12-11T06:44:00.984Z,96872.47
2022-12-11T06:46:27.850Z,96872.50
2022-12-11T06:48:54.623Z,96873.25
2022-12-11T06:51:23.161Z,96879.19
2022-12-11T06:53:54.414Z,96877.59
2022-12-11T06:56:21.925Z,96887.75
2022-12-11T06:58:50.564Z,96890.34
2022-12-11T07:01:29.998Z,96894.53
2022-12-11T07:03:58.772Z,96894.53
2022-12-11T07:06:27.775Z,96892.09
2022-12-11T07:08:55.173Z,96910.81
2022-12-11T07:11:22.939Z,96898.91
2022-12-11T07:13:50.486Z,96914.25
2022-12-11T07:16:18.238Z,96921.03
2022-12-11T07:18:50.165Z,96914.25
2022-12-11T07:21:17.283Z,96921.84
2022-12-11T07:23:45.182Z,96930.25
2022-12-11T07:26:14.773Z,96928.56
2022-12-11T07:28:41.648Z,96936.13
2022-12-11T07:31:14.655Z,96935.09
2022-12-11T07:33:42.263Z,96938.59
2022-12-11T07:36:14.334Z,96936.88
2022-12-11T07:38:41.983Z,96933.44
2022-12-11T07:41:11.694Z,96925.03
2022-12-11T07:43:42.180Z,96929.41
2022-12-11T07:46:13.305Z,96945.50
2022-12-11T07:48:41.848Z,96942.97
2022-12-11T07:51:20.461Z,96950.63
2022-12-11T07:53:49.217Z,96955.72
2022-12-11T07:56:17.570Z,96957.50
2022-12-11T07:58:45.041Z,96955.91
2022-12-11T08:01:33.643Z,96956.63
2022-12-11T08:04:00.728Z,96966.84
2022-12-11T08:06:30.711Z,96956.72
2022-12-11T08:08:58.781Z,96962.66
2022-12-11T08:11:26.172Z,96968.50
2022-12-11T08:13:53.741Z,96975.34
2022-12-11T08:16:21.170Z,96976.16
2022-12-11T08:18:48.173Z,96982.31
2022-12-11T08:21:17.709Z,96978.88
2022-12-11T08:23:44.777Z,96983.97
2022-12-11T08:26:15.420Z,96990.81
2022-12-11T08:28:44.720Z,96986.81
2022-12-11T08:31:13.865Z,96987.63
2022-12-11T08:33:41.966Z,96986.91
2022-12-11T08:36:11.498Z,96996.19
2022-12-11T08:38:38.929Z,96994.56
2022-12-11T08:41:13.679Z,97002.03
2022-12-11T08:43:41.194Z,96997.72
2022-12-11T08:46:08.757Z,97000.22
2022-12-11T08:48:36.961Z,97006.97
2022-12-11T08:51:06.130Z,97012.94
2022-12-11T08:53:33.781Z,97014.63
2022-12-11T08:56:04.875Z,97008.78
2022-12-11T08:58:31.492Z,97001.13
2022-12-11T09:00:58.219Z,97009.53
2022-12-11T09:03:28.561Z,97014.72
2022-12-11T09:05:55.091Z,97012.19
2022-12-11T09:08:21.691Z,97011.34
2022-12-11T09:10:48.387Z,97008.75
2022-12-11T09:13:14.932Z,97017.22
2022-12-11T09:15:41.969Z,97003.69
2022-12-11T09:18:08.968Z,97019.03
2022-12-11T09:20:36.027Z,97013.16
2022-12-11T09:23:03.136Z,97016.66
2022-12-11T09:25:29.848Z,97006.50
2022-12-11T09:27:56.463Z,97008.22
2022-12-11T09:30:23.091Z,97010.81
2022-12-11T09:32:49.715Z,96992.09
2022-12-11T09:35:16.412Z,96997.13
2022-12-11T09:37:43.301Z,96995.47
2022-12-11T09:40:12.303Z,96996.38
2022-12-11T09:42:51.196Z,97012.41
2022-12-11T09:45:18.184Z,97014.00
2022-12-11T09:47:50.194Z,97020.03
2022-12-11T09:50:27.645Z,97019.97
2022-12-11T09:53:11.185Z,97019.09
2022-12-11T09:55:58.981Z,97009.81
2022-12-11T09:58:33.440Z,97008.00
2022-12-11T10:01:10.102Z,97013.13
2022-12-11T10:03:39.395Z,97018.22
2022-12-11T10:06:25.962Z,97009.72
2022-12-11T10:09:24.491Z,97014.72
2022-12-11T10:12:40.114Z,97012.19
2022-12-11T10:15:17.308Z,97004.44
2022-12-11T10:17:44.862Z,97004.38
2022-12-11T10:20:22.703Z,97017.03
2022-12-11T10:22:52.059Z,97007.69
2022-12-11T10:25:32.212Z,97003.34
2022-12-11T10:28:01.252Z,97002.50
2022-12-11T10:30:39.659Z,97008.34
2022-12-11T10:33:49.192Z,96996.47
2022-12-11T10:36:21.022Z,96990.59
2022-12-11T10:38:47.665Z,96987.13
2022-12-11T10:41:19.013Z,96994.81
2022-12-11T10:43:49.904Z,97003.28
2022-12-11T10:46:19.532Z,97000.81
2022-12-11T10:48:49.271Z,96998.91
2022-12-11T10:51:16.300Z,96992.03
2022-12-11T10:53:44.724Z,96997.91
2022-12-11T10:56:12.538Z,96995.34
2022-12-11T10:58:49.243Z,96993.81
2022-12-11T11:01:19.164Z,96993.03
2022-12-11T11:04:06.964Z,96993.75
2022-12-11T11:06:34.300Z,96996.34
2022-12-11T11:09:02.199Z,96992.03
2022-12-11T11:11:34.443Z,96988.66
2022-12-11T11:14:19.250Z,96992.06
2022-12-11T11:16:48.068Z,97010.03
2022-12-11T11:19:35.073Z,97002.47
2022-12-11T11:22:07.039Z,96993.06
2022-12-11T11:24:33.616Z,96993.06
2022-12-11T11:27:15.974Z,96983.78
2022-12-11T11:29:43.354Z,96980.50
2022-12-11T11:32:19.937Z,96984.72
2022-12-11T11:34:46.575Z,96980.47
2022-12-11T11:37:30.272Z,96987.22
2022-12-11T11:40:04.365Z,96984.66
2022-12-11T11:42:39.857Z,96987.19
2022-12-11T11:45:17.640Z,96993.16
2022-12-11T11:48:17.879Z,96993.22
2022-12-11T11:50:50.510Z,96993.38
2022-12-11T11:53:33.741Z,96990.75
2022-12-11T11:56:21.479Z,97006.97
2022-12-11T11:58:59.294Z,97002.75
2022-12-11T12:01:26.843Z,97007.78
2022-12-11T12:03:55.546Z,97005.97
2022-12-11T12:06:25.674Z,97017.81
2022-12-11T12:09:13.131Z,97015.22
2022-12-11T12:11:49.913Z,97016.81
2022-12-11T12:14:52.339Z,97011.69
2022-12-11T12:17:38.881Z,97019.34
2022-12-11T12:20:20.950Z,97014.34
2022-12-11T12:23:26.147Z,97022.91
2022-12-11T12:26:11.373Z,97019.53
2022-12-11T12:29:11.144Z,97017.84
2022-12-11T12:32:09.811Z,97013.50
2022-12-11T12:35:01.886Z,97006.75
2022-12-11T12:37:47.192Z,97004.16
2022-12-11T12:40:13.999Z,96997.41
2022-12-11T12:42:46.726Z,97010.16
2022-12-11T12:45:26.329Z,97007.59
2022-12-11T12:47:53.993Z,97012.78
2022-12-11T12:50:25.072Z,97011.94
2022-12-11T12:52:54.482Z,97020.56
2022-12-11T12:55:25.159Z,97018.03
2022-12-11T12:57:58.423Z,97024.81
2022-12-11T13:00:34.824Z,97014.72
2022-12-11T13:03:15.501Z,97031.78
2022-12-11T13:05:45.051Z,97041.97
2022-12-11T13:08:13.357Z,97033.59
2022-12-11T13:11:00.951Z,97034.38
2022-12-11T13:14:04.744Z,97040.31
2022-12-11T13:16:41.140Z,97042.78
2022-12-11T13:19:42.314Z,97054.13
2022-12-11T13:22:12.472Z,97045.66
2022-12-11T13:25:02.965Z,97044.72
2022-12-11T13:27:29.503Z,97043.16
2022-12-11T13:30:28.836Z,97040.63
2022-12-11T13:33:07.506Z,97039.75
2022-12-11T13:35:35.721Z,97039.81
2022-12-11T13:38:20.701Z,97041.50
2022-12-11T13:40:53.821Z,97043.91
2022-12-11T13:43:31.156Z,97058.34
2022-12-11T13:46:01.312Z,97060.09
2022-12-11T13:48:34.818Z,97054.19
2022-12-11T13:51:02.721Z,97060.91
2022-12-11T13:53:29.720Z,97057.59
2022-12-11T13:55:57.906Z,97054.19
2022-12-11T13:58:25.227Z,97060.28
2022-12-11T14:01:00.316Z,97064.53
2022-12-11T14:03:27.772Z,97062.75
2022-12-11T14:05:54.943Z,97061.09
2022-12-11T14:08:26.505Z,97069.56
2022-12-11T14:10:54.218Z,97082.31
2022-12-11T14:13:29.309Z,97082.41
2022-12-11T14:15:56.100Z,97088.53
2022-12-11T14:18:38.875Z,97099.59
2022-12-11T14:21:06.749Z,97102.13
2022-12-11T14:23:36.708Z,97109.09
2022-12-11T14:26:19.653Z,97099.88
2022-12-11T14:28:47.183Z,97110.94
2022-12-11T14:31:18.661Z,97111.78
2022-12-11T14:33:55.347Z,97108.38
2022-12-11T14:36:23.212Z,97122.06
2022-12-11T14:38:55.876Z,97122.88
2022-12-11T14:41:35.304Z,97129.69
2022-12-11T14:44:06.743Z,97141.63
2022-12-11T14:47:05.752Z,97140.00
2022-12-11T14:49:45.392Z,97138.25
2022-12-11T14:52:18.589Z,97141.56
2022-12-11T14:54:54.213Z,97149.22
2022-12-11T14:57:26.643Z,97153.38
2022-12-11T14:59:55.315Z,97155.06
2022-12-11T15:02:24.339Z,97161.88
2022-12-11T15:05:08.110Z,97160.97
2022-12-11T15:07:34.677Z,97157.50
2022-12-11T15:10:04.521Z,97152.47
2022-12-11T15:12:31.973Z,97153.38
2022-12-11T15:15:03.177Z,97158.44
2022-12-11T15:17:30.805Z,97162.69
2022-12-11T15:20:05.464Z,97169.41
2022-12-11T15:22:32.864Z,97166.06
2022-12-11T15:25:00.323Z,97167.78
2022-12-11T15:27:38.724Z,97172.84
2022-12-11T15:30:30.547Z,97171.16
2022-12-11T15:33:09.438Z,97171.16
2022-12-11T15:35:37.785Z,97164.38
2022-12-11T15:38:04.977Z,97160.28
2022-12-11T15:40:32.144Z,97160.28
2022-12-11T15:43:02.204Z,97165.31
2022-12-11T15:45:29.467Z,97165.31
2022-12-11T15:47:56.674Z,97173.72
2022-12-11T15:50:29.079Z,97171.19
2022-12-11T15:52:56.925Z,97171.97
2022-12-11T15:55:27.298Z,97166.03
2022-12-11T15:58:01.368Z,97170.28
2022-12-11T16:00:28.403Z,97172.06
2022-12-11T16:02:56.989Z,97179.75
2022-12-11T16:05:24.371Z,97178.91
2022-12-11T16:07:52.324Z,97175.66
2022-12-11T16:10:20.728Z,97176.47
2022-12-11T16:12:47.719Z,97179.84
2022-12-11T16:15:22.829Z,97179.03
2022-12-11T16:17:50.469Z,97179.84
2022-12-11T16:20:17.591Z,97178.19
2022-12-11T16:22:44.763Z,97179.84
2022-12-11T16:25:11.974Z,97177.25
2022-12-11T16:27:38.850Z,97179.00
2022-12-11T16:30:07.425Z,97180.78
2022-12-11T16:32:34.068Z,97181.72
2022-12-11T16:35:01.219Z,97174.88
2022-12-11T16:37:28.245Z,97173.22
2022-12-11T16:39:55.199Z,97174.88
2022-12-11T16:42:21.916Z,97174.84
2022-12-11T16:44:49.174Z,97179.91
2022-12-11T16:47:16.095Z,97178.16
2022-12-11T16:49:43.419Z,97177.25
2022-12-11T16:52:10.546Z,97182.38
2022-12-11T16:54:37.300Z,97182.34
2022-12-11T16:57:03.937Z,97180.69
2022-12-11T16:59:36.638Z,97183.22
2022-12-11T17:02:04.257Z,97183.22
2022-12-11T17:04:30.885Z,97191.75
2022-12-11T17:06:57.493Z,97189.28
2022-12-11T17:09:24.264Z,97177.38
2022-12-11T17:11:51.202Z,97182.44
2022-12-11T17:14:17.847Z,97179.88
2022-12-11T17:16:44.520Z,97182.41
2022-12-11T17:19:11.443Z,97175.59
2022-12-11T17:21:38.171Z,97176.44
2022-12-11T17:24:05.012Z,97186.59
2022-12-11T17:26:31.573Z,97190.81
2022-12-11T17:28:58.263Z,97183.97
2022-12-11T17:31:24.924Z,97183.16
2022-12-11T17:33:51.679Z,97189.09
2022-12-11T17:36:21.157Z,97191.56
2022-12-11T17:38:49.556Z,97191.53
2022-12-11T17:41:20.466Z,97177.88
2022-12-11T17:43:49.393Z,97174.50
2022-12-11T17:46:16.280Z,97177.84
2022-12-11T17:48:43.286Z,97177.06
2022-12-11T17:51:12.937Z,97177.88
2022-12-11T17:53:40.268Z,97171.94
2022-12-11T17:56:08.436Z,97182.19
2022-12-11T17:58:35.557Z,97187.25
2022-12-11T18:01:07.301Z,97193.16
2022-12-11T18:03:34.279Z,97196.53
2022-12-11T18:06:06.450Z,97194.84
2022-12-11T18:08:33.195Z,97200.00
2022-12-11T18:11:09.585Z,97194.91
2022-12-11T18:13:36.306Z,97202.53
2022-12-11T18:16:18.083Z,97198.22
2022-12-11T18:18:46.374Z,97194.78
2022-12-11T18:21:15.332Z,97203.31
2022-12-11T18:23:42.057Z,97199.94
2022-12-11T18:26:10.996Z,97211.84
2022-12-11T18:28:37.653Z,97200.78
2022-12-11T18:31:04.711Z,97203.34
2022-12-11T18:33:32.375Z,97195.66
2022-12-11T18:35:58.997Z,97193.13
2022-12-11T18:38:26.766Z,97192.34
2022-12-11T18:40:53.368Z,97195.03
2022-12-11T18:43:19.963Z,97197.66
2022-12-11T18:45:46.618Z,97193.38
2022-12-11T18:48:14.502Z,97195.13
2022-12-11T18:50:49.371Z,97194.28
2022-12-11T18:53:17.264Z,97199.41
2022-12-11T18:55:45.712Z,97201.94
2022-12-11T18:58:14.223Z,97200.31
2022-12-11T19:00:42.144Z,97202.84
2022-12-11T19:03:10.107Z,97204.56
2022-12-11T19:05:40.435Z,97208.03
2022-12-11T19:08:07.058Z,97211.47
2022-12-11T19:10:33.710Z,97203.81
2022-12-11T19:13:00.884Z,97206.31
2022-12-11T19:15:27.842Z,97201.16
2022-12-11T19:17:54.701Z,97205.38
2022-12-11T19:23:08.049Z,97222.25
2022-12-11T19:25:34.763Z,97205.25
2022-12-11T19:28:01.502Z,97207.91
2022-12-11T19:30:28.220Z,97207.97
2022-12-11T19:32:55.115Z,97208.09
2022-12-11T19:35:21.729Z,97214.09
2022-12-11T19:37:48.276Z,97206.47
2022-12-11T19:40:15.134Z,97214.91
2022-12-11T19:42:42.433Z,97216.66
2022-12-11T19:45:10.873Z,97226.06
2022-12-11T19:47:43.031Z,97226.19
2022-12-11T19:50:10.228Z,97224.50
2022-12-11T19:52:41.479Z,97231.34
2022-12-11T19:55:43.901Z,97235.63
2022-12-11T19:58:10.795Z,97239.13
2022-12-11T20:00:38.132Z,97244.25
2022-12-11T20:03:05.035Z,97251.91
2022-12-11T20:05:32.691Z,97257.88
2022-12-11T20:08:27.360Z,97253.69
2022-12-11T20:10:47.271Z,97252.84
2022-12-11T20:13:14.203Z,97260.47
2022-12-11T20:15:41.589Z,97252.03
2022-12-11T20:18:14.032Z,97254.59
2022-12-11T20:20:43.561Z,97255.44
2022-12-11T20:23:11.217Z,97268.19
2022-12-11T20:25:40.173Z,97263.94
2022-12-11T20:28:07.002Z,97269.13
2022-12-11T20:30:36.571Z,97264.03
2022-12-11T20:33:08.951Z,97264.16
2022-12-11T20:35:35.647Z,97266.75
2022-12-11T20:38:02.649Z,97271.78
2022-12-11T20:40:29.326Z,97270.13
2022-12-11T20:42:56.001Z,97268.38
2022-12-11T20:45:23.359Z,97259.06
2022-12-11T20:47:50.225Z,97265.03
2022-12-11T20:50:17.822Z,97265.03
2022-12-11T20:52:44.850Z,97266.75
2022-12-11T20:55:14.314Z,97263.31
2022-12-11T20:57:45.085Z,97265.84
2022-12-11T21:00:14.778Z,97263.28
2022-12-11T21:02:41.480Z,97258.19
2022-12-11T21:05:08.363Z,97256.50
2022-12-11T21:07:35.058Z,97259.06
2022-12-11T21:10:03.422Z,97253.09
2022-12-11T21:12:31.865Z,97256.56
2022-12-11T21:14:58.590Z,97260.91
2022-12-11T21:17:25.263Z,97261.69
2022-12-11T21:19:51.995Z,97264.25
2022-12-11T21:22:18.666Z,97265.03
2022-12-11T21:24:45.479Z,97266.75
2022-12-11T21:27:12.069Z,97263.38
2022-12-11T21:29:38.750Z,97262.56
2022-12-11T21:32:05.656Z,97269.44
2022-12-11T21:34:32.472Z,97271.09
2022-12-11T21:36:59.423Z,97272.81
2022-12-11T21:39:28.406Z,97269.47
2022-12-11T21:41:55.203Z,97272.88
2022-12-11T21:47:08.749Z,97272.91
2022-12-11T21:49:35.334Z,97268.69
2022-12-11T21:52:02.656Z,97271.25
2022-12-11T21:54:29.252Z,97266.97
2022-12-11T21:56:55.928Z,97265.38
2022-12-11T21:59:22.612Z,97259.44
2022-12-11T22:01:49.204Z,97268.81
2022-12-11T22:04:16.140Z,97267.16
2022-12-11T22:06:43.530Z,97267.16
2022-12-11T22:09:12.629Z,97267.13
2022-12-11T22:11:41.140Z,97263.78
2022-12-11T22:14:08.399Z,97270.63
2022-12-11T22:16:35.615Z,97269.75
2022-12-11T22:19:02.226Z,97263.03
2022-12-11T22:21:29.082Z,97268.06
2022-12-11T22:23:55.886Z,97268.13
2022-12-11T22:26:30.043Z,97268.09
2022-12-11T22:28:57.259Z,97265.56
2022-12-11T22:31:26.458Z,97266.38
2022-12-11T22:33:54.052Z,97275.72
2022-12-11T22:36:22.417Z,97273.19
2022-12-11T22:38:49.386Z,97272.31
2022-12-11T22:41:26.068Z,97266.38
2022-12-11T22:43:53.549Z,97263.84
2022-12-11T22:46:22.506Z,97268.94
2022-12-11T22:48:49.399Z,97259.63
2022-12-11T22:51:16.289Z,97267.31
2022-12-11T22:53:43.158Z,97264.84
2022-12-11T22:56:12.440Z,97269.06
2022-12-11T22:58:39.483Z,97268.25
2022-12-11T23:01:12.207Z,97269.09
2022-12-11T23:03:39.098Z,97264.88
2022-12-11T23:06:08.264Z,97270.78
2022-12-11T23:08:35.556Z,97269.91
2022-12-11T23:11:02.661Z,97272.44
2022-12-11T23:13:29.385Z,97264.81
2022-12-11T23:15:56.117Z,97271.66
2022-12-11T23:18:22.836Z,97266.53
2022-12-11T23:20:50.058Z,97263.97
2022-12-11T23:23:16.723Z,97269.91
2022-12-11T23:25:43.363Z,97278.31
2022-12-11T23:28:10.010Z,97276.63
2022-12-11T23:30:36.706Z,97273.22
2022-12-11T23:33:03.473Z,97279.13
2022-12-11T23:35:30.087Z,97267.22
2022-12-11T23:37:56.875Z,97270.66
2022-12-11T23:40:23.503Z,97273.22
2022-12-11T23:42:50.231Z,97274.91
2022-12-11T23:45:16.977Z,97276.56
2022-12-11T23:47:43.687Z,97282.47
2022-12-11T23:50:10.368Z,97279.91
2022-12-11T23:52:38.053Z,97278.22
2022-12-11T23:55:05.619Z,97276.56
2022-12-11T23:57:32.401Z,97277.47
2022-12-11T23:59:58.996Z,97274.03
